createdAt,value
2022-11-28T00:00:47.682Z,25.71
2022-11-28T00:03:18.538Z,25.71
2022-11-28T00:05:48.783Z,25.71
2022-11-28T00:08:19.652Z,25.71
2022-11-28T00:10:52.075Z,25.71
2022-11-28T00:13:22.618Z,25.70
2022-11-28T00:15:59.538Z,25.69
2022-11-28T00:18:30.839Z,25.69
2022-11-28T00:21:04.620Z,25.69
2022-11-28T00:23:35.695Z,25.67
2022-11-28T00:26:12.008Z,25.67
2022-11-28T00:28:42.454Z,25.65
2022-11-28T00:31:16.816Z,25.64
2022-11-28T00:33:47.399Z,25.62
2022-11-28T00:36:18.135Z,25.60
2022-11-28T00:38:49.080Z,25.59
2022-11-28T00:41:24.988Z,25.58
2022-11-28T00:43:55.819Z,25.56
2022-11-28T00:46:27.710Z,25.56
2022-11-28T00:48:58.465Z,25.54
2022-11-28T00:51:31.496Z,25.54
2022-11-28T00:54:06.763Z,25.52
2022-11-28T00:56:42.656Z,25.50
2022-11-28T00:59:12.665Z,25.48
2022-11-28T01:01:46.322Z,25.47
2022-11-28T01:04:20.065Z,25.46
2022-11-28T01:06:53.615Z,25.44
2022-11-28T01:09:26.755Z,25.43
2022-11-28T01:11:58.830Z,25.41
2022-11-28T01:14:30.668Z,25.39
2022-11-28T01:17:00.748Z,25.38
2022-11-28T01:19:31.434Z,25.36
2022-11-28T01:22:02.485Z,25.34
2022-11-28T01:24:33.235Z,25.32
2022-11-28T01:27:05.199Z,25.31
2022-11-28T01:29:35.731Z,25.30
2022-11-28T01:32:06.483Z,25.30
2022-11-28T01:34:36.466Z,25.29
2022-11-28T01:37:07.466Z,25.30
2022-11-28T01:39:37.355Z,25.29
2022-11-28T01:42:10.329Z,25.30
2022-11-28T01:45:14.641Z,25.29
2022-11-28T01:47:46.218Z,25.27
2022-11-28T01:50:18.331Z,25.27
2022-11-28T01:52:56.180Z,25.27
2022-11-28T01:55:32.171Z,25.27
2022-11-28T01:58:04.774Z,25.25
2022-11-28T02:00:35.089Z,25.23
2022-11-28T02:03:13.180Z,25.23
2022-11-28T02:05:44.659Z,25.22
2022-11-28T02:08:15.469Z,25.20
2022-11-28T02:11:14.755Z,25.19
2022-11-28T02:13:59.100Z,25.17
2022-11-28T02:16:51.871Z,25.16
2022-11-28T02:20:16.634Z,25.14
2022-11-28T02:23:02.894Z,25.12
2022-11-28T02:26:17.317Z,25.10
2022-11-28T02:29:41.270Z,25.08
2022-11-28T02:32:43.192Z,25.05
2022-11-28T02:35:21.538Z,25.02
2022-11-28T02:38:12.054Z,24.99
2022-11-28T02:40:53.165Z,24.96
2022-11-28T02:43:35.883Z,24.94
2022-11-28T02:46:16.221Z,24.93
2022-11-28T02:48:56.044Z,24.93
2022-11-28T02:51:32.700Z,24.92
2022-11-28T02:54:06.686Z,24.93
2022-11-28T02:56:38.171Z,24.92
2022-11-28T02:59:32.374Z,24.92
2022-11-28T03:02:04.498Z,24.91
2022-11-28T03:04:47.546Z,24.90
2022-11-28T03:07:36.699Z,24.89
2022-11-28T03:10:25.350Z,24.88
2022-11-28T03:13:11.600Z,24.85
2022-11-28T03:15:51.439Z,24.85
2022-11-28T03:18:28.729Z,24.84
2022-11-28T03:21:14.768Z,24.85
2022-11-28T03:23:54.805Z,24.83
2022-11-28T03:26:35.310Z,24.82
2022-11-28T03:29:15.702Z,24.81
2022-11-28T03:31:55.067Z,24.79
2022-11-28T03:34:33.171Z,24.77
2022-11-28T03:37:11.791Z,24.76
2022-11-28T03:39:49.459Z,24.76
2022-11-28T03:42:25.690Z,24.76
2022-11-28T03:45:01.922Z,24.74
2022-11-28T03:47:42.479Z,24.74
2022-11-28T03:50:21.676Z,24.72
2022-11-28T03:53:01.048Z,24.72
2022-11-28T03:55:40.652Z,24.70
2022-11-28T03:58:24.050Z,24.69
2022-11-28T04:01:06.298Z,24.69
2022-11-28T04:03:49.017Z,24.68
2022-11-28T04:06:27.658Z,24.67
2022-11-28T04:09:14.387Z,24.67
2022-11-28T04:11:52.721Z,24.65
2022-11-28T04:14:29.959Z,24.66
2022-11-28T04:17:10.849Z,24.66
2022-11-28T04:19:46.123Z,24.66
2022-11-28T04:22:22.487Z,24.66
2022-11-28T04:24:59.761Z,24.65
2022-11-28T04:27:36.325Z,24.63
2022-11-28T04:30:11.360Z,24.64
2022-11-28T04:32:49.456Z,24.64
2022-11-28T04:35:33.739Z,24.62
2022-11-28T04:38:17.603Z,24.62
2022-11-28T04:40:57.195Z,24.62
2022-11-28T04:43:33.418Z,24.62
2022-11-28T04:46:12.185Z,24.62
2022-11-28T04:48:43.565Z,24.62
2022-11-28T04:51:24.767Z,24.61
2022-11-28T04:54:04.422Z,24.61
2022-11-28T04:56:45.894Z,24.63
2022-11-28T04:59:17.970Z,24.63
2022-11-28T05:01:52.368Z,24.66
2022-11-28T05:04:23.290Z,24.70
2022-11-28T05:06:54.093Z,24.75
2022-11-28T05:09:23.892Z,24.80
2022-11-28T05:11:55.439Z,24.85
2022-11-28T05:14:26.358Z,24.89
2022-11-28T05:16:56.556Z,24.91
2022-11-28T05:19:27.486Z,24.93
2022-11-28T05:21:58.092Z,24.95
2022-11-28T05:24:32.258Z,24.96
2022-11-28T05:27:05.112Z,24.98
2022-11-28T05:29:35.823Z,24.98
2022-11-28T05:32:07.154Z,25.01
2022-11-28T05:34:38.449Z,25.05
2022-11-28T05:37:08.961Z,25.06
2022-11-28T05:39:39.253Z,25.09
2022-11-28T05:42:11.650Z,25.11
2022-11-28T05:44:42.455Z,25.13
2022-11-28T05:47:12.501Z,25.17
2022-11-28T05:49:42.934Z,25.23
2022-11-28T05:52:13.148Z,25.29
2022-11-28T05:54:43.848Z,25.41
2022-11-28T05:57:16.476Z,25.58
2022-11-28T05:59:46.507Z,25.77
2022-11-28T06:02:17.192Z,26.01
2022-11-28T06:04:47.477Z,26.28
2022-11-28T06:07:19.148Z,26.56
2022-11-28T06:09:48.864Z,26.83
2022-11-28T06:12:20.655Z,27.12
2022-11-28T06:14:51.283Z,27.38
2022-11-28T06:17:22.215Z,27.66
2022-11-28T06:19:52.937Z,27.93
2022-11-28T06:22:23.181Z,28.19
2022-11-28T06:24:54.163Z,28.45
2022-11-28T06:27:26.330Z,28.71
2022-11-28T06:29:56.707Z,28.95
2022-11-28T06:32:27.265Z,29.19
2022-11-28T06:34:57.894Z,29.42
2022-11-28T06:37:28.471Z,29.64
2022-11-28T06:40:01.583Z,29.87
2022-11-28T06:42:34.314Z,30.09
2022-11-28T06:45:04.449Z,30.29
2022-11-28T06:47:34.299Z,30.48
2022-11-28T06:50:05.424Z,30.65
2022-11-28T06:52:36.200Z,30.80
2022-11-28T06:55:06.683Z,30.98
2022-11-28T06:57:39.703Z,31.13
2022-11-28T07:00:12.346Z,31.31
2022-11-28T07:02:42.591Z,31.47
2022-11-28T07:05:13.335Z,31.60
2022-11-28T07:07:53.827Z,31.74
2022-11-28T07:10:25.587Z,31.90
2022-11-28T07:13:05.109Z,32.05
2022-11-28T07:15:36.238Z,32.18
2022-11-28T07:18:07.142Z,32.34
2022-11-28T07:20:38.612Z,32.53
2022-11-28T07:23:08.759Z,32.70
2022-11-28T07:25:38.974Z,32.87
2022-11-28T07:28:13.653Z,33.04
2022-11-28T07:30:43.848Z,33.17
2022-11-28T07:33:14.500Z,33.31
2022-11-28T07:35:45.020Z,33.44
2022-11-28T07:38:15.642Z,33.60
2022-11-28T07:40:45.543Z,33.72
2022-11-28T07:43:17.358Z,33.81
2022-11-28T07:46:00.626Z,33.91
2022-11-28T07:48:32.302Z,34.04
2022-11-28T07:51:03.022Z,34.21
2022-11-28T07:53:33.553Z,34.40
2022-11-28T07:56:05.414Z,34.61
2022-11-28T07:58:39.415Z,34.84
2022-11-28T08:01:12.833Z,35.08
2022-11-28T08:03:45.093Z,35.34
2022-11-28T08:06:16.955Z,35.61
2022-11-28T08:08:47.959Z,35.79
2022-11-28T08:11:20.690Z,35.89
2022-11-28T08:13:56.551Z,36.00
2022-11-28T08:16:31.137Z,36.14
2022-11-28T08:19:04.586Z,36.32
2022-11-28T08:21:36.350Z,36.55
2022-11-28T08:24:08.798Z,36.77
2022-11-28T08:26:39.283Z,36.92
2022-11-28T08:29:13.109Z,36.98
2022-11-28T08:31:43.674Z,37.04
2022-11-28T08:34:13.491Z,37.18
2022-11-28T08:36:43.722Z,37.26
2022-11-28T08:39:30.055Z,37.21
2022-11-28T08:42:00.626Z,37.05
2022-11-28T08:44:34.152Z,36.87
2022-11-28T08:47:04.125Z,36.65
2022-11-28T08:49:34.574Z,36.44
2022-11-28T08:52:05.856Z,36.20
2022-11-28T08:54:36.302Z,35.99
2022-11-28T08:57:06.936Z,35.82
2022-11-28T08:59:39.971Z,35.65
2022-11-28T09:02:13.014Z,35.47
2022-11-28T09:04:42.978Z,35.28
2022-11-28T09:07:12.681Z,35.12
2022-11-28T09:09:42.694Z,34.96
2022-11-28T09:12:12.718Z,34.79
2022-11-28T09:14:45.668Z,34.65
2022-11-28T09:17:16.280Z,34.52
2022-11-28T09:19:46.786Z,34.43
2022-11-28T09:22:16.824Z,34.33
2022-11-28T09:24:46.292Z,34.25
2022-11-28T09:27:18.505Z,34.17
2022-11-28T09:29:50.971Z,34.10
2022-11-28T09:32:21.118Z,34.04
2022-11-28T09:34:51.829Z,33.96
2022-11-28T09:37:21.740Z,33.89
2022-11-28T09:40:12.179Z,33.80
2022-11-28T09:42:45.317Z,33.70
2022-11-28T09:45:21.717Z,33.60
2022-11-28T09:47:56.640Z,33.50
2022-11-28T09:50:32.442Z,33.42
2022-11-28T09:53:18.189Z,33.33
2022-11-28T09:55:53.204Z,33.23
2022-11-28T09:58:36.301Z,33.15
2022-11-28T10:01:19.076Z,33.06
2022-11-28T10:04:02.184Z,32.95
2022-11-28T10:06:42.946Z,32.85
2022-11-28T10:09:35.825Z,32.76
2022-11-28T10:12:29.034Z,32.65
2022-11-28T10:15:27.876Z,32.53
2022-11-28T10:18:22.259Z,32.45
2022-11-28T10:20:59.808Z,32.37
2022-11-28T10:23:37.735Z,32.33
2022-11-28T10:26:14.433Z,32.28
2022-11-28T10:28:52.147Z,32.23
2022-11-28T10:31:36.276Z,32.17
2022-11-28T10:34:18.071Z,32.11
2022-11-28T10:36:59.831Z,32.05
2022-11-28T10:39:30.817Z,31.98
2022-11-28T10:42:15.199Z,31.89
2022-11-28T10:45:06.233Z,31.78
2022-11-28T10:48:37.574Z,31.66
2022-11-28T10:51:10.999Z,31.52
2022-11-28T10:53:55.455Z,31.45
2022-11-28T10:56:43.326Z,31.36
2022-11-28T10:59:30.180Z,31.26
2022-11-28T11:02:02.149Z,31.13
2022-11-28T11:04:39.485Z,31.03
2022-11-28T11:07:25.089Z,30.94
2022-11-28T11:10:02.948Z,30.85
2022-11-28T11:12:36.895Z,30.77
2022-11-28T11:15:32.289Z,30.71
2022-11-28T11:18:07.997Z,30.66
2022-11-28T11:20:41.502Z,30.59
2022-11-28T11:23:20.764Z,30.54
2022-11-28T11:25:58.927Z,30.48
2022-11-28T11:28:45.403Z,30.44
2022-11-28T11:31:26.012Z,30.41
2022-11-28T11:34:06.622Z,30.39
2022-11-28T11:36:39.878Z,30.36
2022-11-28T11:39:25.789Z,30.34
2022-11-28T11:42:22.497Z,30.31
2022-11-28T11:44:55.595Z,30.26
2022-11-28T11:47:45.411Z,30.25
2022-11-28T11:50:22.942Z,30.23
2022-11-28T11:53:07.275Z,30.19
2022-11-28T11:55:50.577Z,30.15
2022-11-28T11:58:25.883Z,30.10
2022-11-28T12:01:01.214Z,30.07
2022-11-28T12:03:42.010Z,30.05
2022-11-28T12:06:20.554Z,29.99
2022-11-28T12:08:55.832Z,29.95
2022-11-28T12:11:36.332Z,29.90
2022-11-28T12:14:27.472Z,29.87
2022-11-28T12:20:45.403Z,29.78
2022-11-28T12:23:40.252Z,29.75
2022-11-28T12:26:23.427Z,29.72
2022-11-28T12:32:26.704Z,29.70
2022-11-28T12:35:18.543Z,29.68
2022-11-28T12:38:10.604Z,29.67
2022-11-28T12:40:57.576Z,29.64
2022-11-28T12:43:47.225Z,29.63
2022-11-28T12:46:32.980Z,29.60
2022-11-28T12:49:19.318Z,29.58
2022-11-28T12:52:19.514Z,29.55
2022-11-28T12:55:08.164Z,29.53
2022-11-28T12:57:51.182Z,29.51
2022-11-28T13:00:26.697Z,29.49
2022-11-28T13:03:16.050Z,29.49
2022-11-28T13:06:00.377Z,29.48
2022-11-28T13:08:53.467Z,29.47
2022-11-28T13:11:42.900Z,29.43
2022-11-28T13:14:26.692Z,29.41
2022-11-28T13:17:04.575Z,29.38
2022-11-28T13:19:54.383Z,29.37
2022-11-28T13:22:32.560Z,29.35
2022-11-28T13:25:14.920Z,29.33
2022-11-28T13:28:01.491Z,29.30
2022-11-28T13:30:41.834Z,29.28
2022-11-28T13:33:36.899Z,29.27
2022-11-28T13:38:35.022Z,29.26
2022-11-28T13:39:16.964Z,29.22
2022-11-28T13:42:36.462Z,29.19
2022-11-28T13:44:58.895Z,29.17
2022-11-28T13:47:37.135Z,29.16
2022-11-28T13:50:43.740Z,29.14
2022-11-28T13:53:26.850Z,29.12
2022-11-28T13:56:27.823Z,29.08
2022-11-28T13:59:02.622Z,29.06
2022-11-28T14:01:45.802Z,29.04
2022-11-28T14:04:18.205Z,29.02
2022-11-28T14:06:54.931Z,29.00
2022-11-28T14:09:45.034Z,28.97
2022-11-28T14:12:34.644Z,28.96
2022-11-28T14:15:28.164Z,28.94
2022-11-28T14:18:54.885Z,28.92
2022-11-28T14:21:33.074Z,28.88
2022-11-28T14:24:17.722Z,28.86
2022-11-28T14:26:51.456Z,28.86
2022-11-28T14:29:27.752Z,28.85
2022-11-28T14:34:51.706Z,28.84
2022-11-28T14:37:57.944Z,28.82
2022-11-28T14:41:06.286Z,28.80
2022-11-28T14:43:41.304Z,28.79
2022-11-28T14:46:32.413Z,28.79
2022-11-28T14:49:25.367Z,28.77
2022-11-28T14:52:39.408Z,28.76
2022-11-28T14:55:27.562Z,28.75
2022-11-28T14:58:04.669Z,28.75
2022-11-28T15:00:53.370Z,28.75
2022-11-28T15:03:40.394Z,28.74
2022-11-28T15:06:20.944Z,28.74
2022-11-28T15:09:07.533Z,28.70
2022-11-28T15:12:15.800Z,28.68
2022-11-28T15:14:49.528Z,28.66
2022-11-28T15:17:31.146Z,28.66
2022-11-28T15:20:07.619Z,28.65
2022-11-28T15:22:46.100Z,28.64
2022-11-28T15:25:23.778Z,28.63
2022-11-28T15:27:56.247Z,28.63
2022-11-28T15:30:29.270Z,28.61
2022-11-28T15:33:03.381Z,28.61
2022-11-28T15:35:35.249Z,28.60
2022-11-28T15:38:05.429Z,28.60
2022-11-28T15:40:38.608Z,28.60
2022-11-28T15:43:12.869Z,28.58
2022-11-28T15:45:44.248Z,28.59
2022-11-28T15:48:39.301Z,28.57
2022-11-28T15:51:11.786Z,28.56
2022-11-28T15:53:44.609Z,28.55
2022-11-28T15:56:17.851Z,28.55
2022-11-28T15:58:51.679Z,28.53
2022-11-28T16:01:24.247Z,28.52
2022-11-28T16:04:02.630Z,28.50
2022-11-28T16:06:37.037Z,28.49
2022-11-28T16:09:10.914Z,28.48
2022-11-28T16:11:41.368Z,28.47
2022-11-28T16:14:24.134Z,28.45
2022-11-28T16:16:55.046Z,28.42
2022-11-28T16:19:33.232Z,28.42
2022-11-28T16:22:07.349Z,28.39
2022-11-28T16:24:49.722Z,28.37
2022-11-28T16:27:39.948Z,28.34
2022-11-28T16:30:31.544Z,28.31
2022-11-28T16:33:01.656Z,28.29
2022-11-28T16:35:40.868Z,28.28
2022-11-28T16:38:21.097Z,28.26
2022-11-28T16:40:52.040Z,28.22
2022-11-28T16:43:31.802Z,28.22
2022-11-28T16:46:03.585Z,28.19
2022-11-28T16:48:37.911Z,28.14
2022-11-28T16:51:37.001Z,28.09
2022-11-28T16:54:36.430Z,28.03
2022-11-28T16:57:17.130Z,28.02
2022-11-28T16:59:48.047Z,28.01
2022-11-28T17:02:21.461Z,28.02
2022-11-28T17:04:54.188Z,28.02
2022-11-28T17:07:27.746Z,28.01
2022-11-28T17:09:57.861Z,27.99
2022-11-28T17:12:32.813Z,27.99
2022-11-28T17:15:02.825Z,27.96
2022-11-28T17:17:33.972Z,27.94
2022-11-28T17:20:04.919Z,27.93
2022-11-28T17:22:43.098Z,27.92
2022-11-28T17:25:19.473Z,27.91
2022-11-28T17:27:51.084Z,27.89
2022-11-28T17:30:22.733Z,27.87
2022-11-28T17:32:53.175Z,27.87
2022-11-28T17:35:26.924Z,27.84
2022-11-28T17:37:59.288Z,27.82
2022-11-28T17:40:34.999Z,27.81
2022-11-28T17:43:06.137Z,27.79
2022-11-28T17:45:38.269Z,27.78
2022-11-28T17:48:09.773Z,27.75
2022-11-28T17:50:40.061Z,27.73
2022-11-28T17:53:14.320Z,27.72
2022-11-28T17:55:46.244Z,27.70
2022-11-28T17:58:22.179Z,27.68
2022-11-28T18:00:57.369Z,27.66
2022-11-28T18:03:31.160Z,27.64
2022-11-28T18:06:01.723Z,27.61
2022-11-28T18:08:35.025Z,27.60
2022-11-28T18:11:07.030Z,27.58
2022-11-28T18:13:38.358Z,27.54
2022-11-28T18:16:09.384Z,27.50
2022-11-28T18:18:41.156Z,27.48
2022-11-28T18:21:12.726Z,27.45
2022-11-28T18:23:49.771Z,27.44
2022-11-28T18:26:23.336Z,27.39
2022-11-28T18:28:54.945Z,27.40
2022-11-28T18:31:28.537Z,27.40
2022-11-28T18:34:02.658Z,27.40
2022-11-28T18:36:38.379Z,27.39
2022-11-28T18:39:14.758Z,27.39
2022-11-28T18:41:45.957Z,27.37
2022-11-28T18:44:16.035Z,27.38
2022-11-28T18:46:46.317Z,27.39
2022-11-28T18:49:19.500Z,27.38
2022-11-28T18:51:50.065Z,27.38
2022-11-28T18:54:22.413Z,27.39
2022-11-28T18:56:53.569Z,27.38
2022-11-28T18:59:24.235Z,27.38
2022-11-28T19:01:54.924Z,27.38
2022-11-28T19:04:25.540Z,27.37
2022-11-28T19:06:56.081Z,27.35
2022-11-28T19:09:28.287Z,27.35
2022-11-28T19:11:58.871Z,27.33
2022-11-28T19:14:29.378Z,27.32
2022-11-28T19:17:00.204Z,27.31
2022-11-28T19:19:30.898Z,27.30
2022-11-28T19:22:02.603Z,27.28
2022-11-28T19:24:35.496Z,27.27
2022-11-28T19:27:09.644Z,27.25
2022-11-28T19:29:44.587Z,27.23
2022-11-28T19:32:14.802Z,27.21
2022-11-28T19:34:44.798Z,27.19
2022-11-28T19:37:16.212Z,27.17
2022-11-28T19:39:49.310Z,27.17
2022-11-28T19:42:19.243Z,27.16
2022-11-28T19:44:49.021Z,27.16
2022-11-28T19:47:19.656Z,27.16
2022-11-28T19:49:50.527Z,27.15
2022-11-28T19:52:21.073Z,27.13
2022-11-28T19:54:53.083Z,27.14
2022-11-28T19:57:24.444Z,27.12
2022-11-28T19:59:54.518Z,27.11
2022-11-28T20:02:25.114Z,27.10
2022-11-28T20:04:55.888Z,27.09
2022-11-28T20:07:26.202Z,27.07
2022-11-28T20:09:58.773Z,27.07
2022-11-28T20:12:29.198Z,27.07
2022-11-28T20:14:59.517Z,27.05
2022-11-28T20:17:30.119Z,27.05
2022-11-28T20:20:00.271Z,27.03
2022-11-28T20:22:31.211Z,27.04
2022-11-28T20:25:03.948Z,27.01
2022-11-28T20:27:34.403Z,27.00
2022-11-28T20:30:06.448Z,26.99
2022-11-28T20:32:36.068Z,26.97
2022-11-28T20:35:06.326Z,26.96
2022-11-28T20:37:36.549Z,26.94
2022-11-28T20:40:10.575Z,26.94
2022-11-28T20:42:41.215Z,26.91
2022-11-28T20:45:12.309Z,26.92
2022-11-28T20:47:48.253Z,26.92
2022-11-28T20:50:20.568Z,26.91
2022-11-28T20:52:51.414Z,26.90
2022-11-28T20:55:24.102Z,26.88
2022-11-28T20:57:54.103Z,26.88
2022-11-28T21:00:26.861Z,26.87
2022-11-28T21:02:57.602Z,26.85
2022-11-28T21:05:28.153Z,26.84
2022-11-28T21:07:58.322Z,26.84
2022-11-28T21:10:33.396Z,26.83
2022-11-28T21:13:04.399Z,26.83
2022-11-28T21:15:34.946Z,26.82
2022-11-28T21:18:05.458Z,26.81
2022-11-28T21:20:36.045Z,26.79
2022-11-28T21:23:06.298Z,26.77
2022-11-28T21:25:41.288Z,26.76
2022-11-28T21:28:15.178Z,26.74
2022-11-28T21:30:48.655Z,26.73
2022-11-28T21:33:18.730Z,26.71
2022-11-28T21:35:49.147Z,26.70
2022-11-28T21:38:19.117Z,26.69
2022-11-28T21:40:57.789Z,26.66
2022-11-28T21:43:27.956Z,26.63
2022-11-28T21:46:02.804Z,26.60
2022-11-28T21:48:34.479Z,26.57
2022-11-28T21:51:05.570Z,26.55
2022-11-28T21:53:37.050Z,26.53
2022-11-28T21:56:09.990Z,26.51
2022-11-28T21:58:40.600Z,26.49
2022-11-28T22:01:12.996Z,26.49
2022-11-28T22:03:44.658Z,26.49
2022-11-28T22:06:19.568Z,26.47
2022-11-28T22:08:50.527Z,26.47
2022-11-28T22:11:24.594Z,26.48
2022-11-28T22:13:54.939Z,26.48
2022-11-28T22:16:29.772Z,26.50
2022-11-28T22:19:03.498Z,26.50
2022-11-28T22:24:24.650Z,26.49
2022-11-28T22:26:57.587Z,26.48
2022-11-28T22:29:27.281Z,26.47
2022-11-28T22:31:57.972Z,26.46
2022-11-28T22:34:28.383Z,26.46
2022-11-28T22:36:58.573Z,26.45
2022-11-28T22:39:29.062Z,26.43
2022-11-28T22:42:00.563Z,26.40
2022-11-28T22:44:31.203Z,26.38
2022-11-28T22:47:07.180Z,26.36
2022-11-28T22:49:37.908Z,26.35
2022-11-28T22:52:08.894Z,26.34
2022-11-28T22:54:39.666Z,26.34
2022-11-28T22:57:11.705Z,26.34
2022-11-28T22:59:41.738Z,26.33
2022-11-28T23:02:12.629Z,26.33
2022-11-28T23:04:43.891Z,26.31
2022-11-28T23:07:14.792Z,26.30
2022-11-28T23:09:44.961Z,26.29
2022-11-28T23:12:17.412Z,26.28
2022-11-28T23:14:48.231Z,26.28
2022-11-28T23:17:18.762Z,26.26
2022-11-28T23:19:49.691Z,26.25
2022-11-28T23:22:20.157Z,26.25
2022-11-28T23:24:50.268Z,26.25
2022-11-28T23:27:22.760Z,26.24
2022-11-28T23:29:52.868Z,26.23
2022-11-28T23:32:22.924Z,26.21
2022-11-28T23:34:53.385Z,26.19
2022-11-28T23:37:24.041Z,26.17
2022-11-28T23:39:54.452Z,26.16
2022-11-28T23:42:27.328Z,26.16
2022-11-28T23:44:57.235Z,26.13
2022-11-28T23:47:27.228Z,26.11
2022-11-28T23:49:57.751Z,26.11
2022-11-28T23:52:28.375Z,26.11
2022-11-28T23:54:58.403Z,26.10
2022-11-28T23:57:31.934Z,26.11
